Time;durP1;ratioP1;P1;durP2;ratioP2;P2;SDS_P1;SDS_P2;PMS_P1;PMS_P2;Temp;Humidity;BMP_temperature;BMP_pressure;BME280_temperature;BME280_humidity;BME280_pressure;Samples;Min_cycle;Max_cycle;Signal;HPM_P1;HPM_P2
2023/04/18 00:02:01;;;;;;;21.33;7.73;;;;;;;42.44;34.47;100688.78;6184462;23;20153;-82
2023/04/18 00:04:27;;;;;;;16.03;6.10;;;;;;;42.41;34.35;100684.81;6184496;23;20443;-82
2023/04/18 00:06:53;;;;;;;17.13;5.93;;;;;;;42.42;34.20;100675.50;6184370;23;20860;-80
2023/04/18 00:09:19;;;;;;;20.47;8.00;;;;;;;42.47;34.18;100677.19;6184527;23;20852;-80
2023/04/18 00:11:45;;;;;;;17.53;5.70;;;;;;;42.55;33.99;100674.34;6186341;23;20153;-80
2023/04/18 00:14:12;;;;;;;12.87;6.43;;;;;;;42.61;34.18;100669.50;6184250;23;20436;-80
2023/04/18 00:16:38;;;;;;;25.47;8.50;;;;;;;42.61;34.21;100669.50;6186351;23;20145;-80
2023/04/18 00:19:04;;;;;;;25.97;12.20;;;;;;;42.52;34.23;100663.31;6184996;23;20442;-80
2023/04/18 00:21:30;;;;;;;20.13;10.07;;;;;;;42.56;34.95;100662.31;6184275;23;20388;-80
2023/04/18 00:23:56;;;;;;;21.13;6.10;;;;;;;42.49;34.59;100653.13;6184232;23;20772;-80
2023/04/18 00:26:22;;;;;;;10.73;5.33;;;;;;;42.52;34.28;100647.75;6184098;23;20443;-80
2023/04/18 00:28:50;;;;;;;15.30;5.43;;;;;;;42.53;34.61;100645.81;6186458;23;20353;-80
2023/04/18 00:31:16;;;;;;;18.73;6.10;;;;;;;42.55;34.82;100640.84;6184136;23;20195;-80
2023/04/18 00:33:42;;;;;;;22.87;6.10;;;;;;;42.53;34.99;100645.81;6184085;23;20404;-80
2023/04/18 00:36:08;;;;;;;16.20;5.97;;;;;;;42.60;35.03;100637.88;6184004;23;20153;-80
2023/04/18 00:38:35;;;;;;;15.73;6.97;;;;;;;42.60;35.25;100635.97;6184175;23;20180;-80
2023/04/18 00:41:01;;;;;;;17.13;6.00;;;;;;;42.56;34.82;100626.84;6184110;23;20469;-80
2023/04/18 00:43:27;;;;;;;26.17;6.63;;;;;;;42.61;34.63;100636.75;6183858;23;20539;-80
2023/04/18 00:45:53;;;;;;;20.23;10.43;;;;;;;42.62;35.15;100636.41;6183687;23;20463;-80
2023/04/18 00:48:20;;;;;;;22.27;12.53;;;;;;;42.62;34.85;100628.22;6185888;23;20393;-80
2023/04/18 00:50:46;;;;;;;19.70;13.67;;;;;;;42.45;35.51;100633.13;6183913;23;20380;-80
2023/04/18 00:53:12;;;;;;;32.93;17.07;;;;;;;42.31;35.76;100633.47;6183968;23;20372;-80
2023/04/18 00:55:39;;;;;;;27.23;15.47;;;;;;;42.45;35.38;100623.00;6183998;23;20449;-80
2023/04/18 00:58:05;;;;;;;22.37;14.47;;;;;;;42.21;36.11;100628.47;6183883;23;20904;-80
2023/04/18 01:00:31;;;;;;;24.63;15.10;;;;;;;42.20;36.02;100618.72;6183858;23;20435;-80
2023/04/18 01:02:58;;;;;;;28.00;19.57;;;;;;;42.22;36.38;100606.31;6183891;23;20486;-80
2023/04/18 01:05:25;;;;;;;28.30;18.27;;;;;;;42.41;35.64;100611.19;6183864;23;20873;-80
2023/04/18 01:07:52;;;;;;;29.87;19.37;;;;;;;42.46;35.51;100605.50;6183912;23;20376;-80
2023/04/18 01:10:18;;;;;;;30.77;16.20;;;;;;;42.44;35.40;100596.88;6183830;23;20495;-82
2023/04/18 01:12:44;;;;;;;26.07;15.97;;;;;;;42.29;35.66;100609.28;6183700;23;20462;-82
2023/04/18 01:15:10;;;;;;;34.37;16.77;;;;;;;42.27;35.69;100606.09;6183823;23;20701;-80
2023/04/18 01:17:37;;;;;;;25.20;18.13;;;;;;;42.33;35.49;100604.72;6183850;23;20471;-80
2023/04/18 01:20:05;;;;;;;32.10;20.00;;;;;;;42.31;36.04;100592.59;6183618;23;20380;-80
2023/04/18 01:22:32;;;;;;;30.30;18.70;;;;;;;42.31;35.65;100593.38;6183788;23;20376;-80
2023/04/18 01:24:58;;;;;;;42.53;19.27;;;;;;;42.35;36.09;100590.75;6185646;23;20701;-82
2023/04/18 01:27:24;;;;;;;31.73;17.77;;;;;;;42.39;35.91;100586.22;6184045;23;20385;-82
2023/04/18 01:29:49;;;;;;;31.87;19.30;;;;;;;42.37;35.69;100581.09;6183755;23;20180;-80
2023/04/18 01:32:16;;;;;;;34.27;21.43;;;;;;;42.30;35.83;100580.09;6183652;23;20164;-80
2023/04/18 01:34:42;;;;;;;29.50;18.67;;;;;;;42.40;35.91;100569.50;6183719;23;20459;-80
2023/04/18 01:37:08;;;;;;;34.37;21.00;;;;;;;42.50;35.70;100575.63;6183851;23;20792;-80
2023/04/18 01:39:34;;;;;;;37.40;22.10;;;;;;;42.37;35.82;100567.47;6185642;23;20411;-80
2023/04/18 01:42:00;;;;;;;41.37;21.77;;;;;;;42.35;35.59;100567.00;6183635;23;20399;-80
2023/04/18 01:44:26;;;;;;;38.43;19.77;;;;;;;42.35;35.81;100558.81;6183433;23;20432;-80
2023/04/18 01:46:52;;;;;;;29.40;22.83;;;;;;;42.23;35.71;100555.34;6185623;23;20364;-82
2023/04/18 01:49:18;;;;;;;29.90;20.10;;;;;;;42.24;35.86;100557.72;6183462;23;20395;-82
2023/04/18 01:51:44;;;;;;;27.40;20.20;;;;;;;42.29;36.00;100549.28;6183758;23;20168;-82
2023/04/18 01:54:10;;;;;;;32.20;20.57;;;;;;;42.19;35.86;100546.28;6183273;23;20172;-82
2023/04/18 01:56:36;;;;;;;33.83;20.57;;;;;;;42.00;36.57;100555.81;6183250;23;20185;-80
2023/04/18 01:59:02;;;;;;;26.20;17.43;;;;;;;42.15;35.94;100548.84;6183407;23;20384;-80
2023/04/18 02:01:28;;;;;;;34.63;19.00;;;;;;;42.28;35.96;100553.16;6183557;23;20463;-80
2023/04/18 02:03:54;;;;;;;29.13;18.23;;;;;;;42.11;36.33;100556.09;6183443;23;20431;-80
2023/04/18 02:06:20;;;;;;;29.90;18.33;;;;;;;42.14;36.32;100552.72;6183335;23;20387;-79
2023/04/18 02:08:45;;;;;;;26.60;17.93;;;;;;;42.27;36.08;100553.50;6183194;23;20508;-82
2023/04/18 02:11:11;;;;;;;24.13;18.10;;;;;;;42.21;36.05;100561.13;6183223;23;20431;-82
2023/04/18 02:13:38;;;;;;;27.47;19.80;;;;;;;42.14;35.91;100553.50;6183000;23;20544;-82
2023/04/18 02:16:04;;;;;;;28.90;18.90;;;;;;;42.12;36.27;100555.00;6183271;23;20743;-82
2023/04/18 02:18:33;;;;;;;27.70;18.90;;;;;;;42.09;36.33;100545.56;6183033;23;20443;-80
2023/04/18 02:20:59;;;;;;;27.20;18.47;;;;;;;41.75;37.25;100552.28;6183152;23;20394;-80
2023/04/18 02:23:25;;;;;;;35.13;20.17;;;;;;;41.71;36.81;100540.44;6183163;23;20427;-80
2023/04/18 02:25:51;;;;;;;34.47;20.97;;;;;;;42.00;36.88;100541.38;6185087;23;20442;-80
2023/04/18 02:28:17;;;;;;;34.40;21.10;;;;;;;41.85;36.66;100534.69;6185021;23;20144;-80
2023/04/18 02:30:43;;;;;;;30.77;19.57;;;;;;;41.60;37.26;100533.84;6183249;23;20389;-80
2023/04/18 02:33:09;;;;;;;30.30;19.27;;;;;;;41.51;37.73;100535.91;6183275;23;20462;-82
2023/04/18 02:35:36;;;;;;;32.27;20.90;;;;;;;41.45;37.59;100537.25;6183205;23;20392;-82
2023/04/18 02:38:02;;;;;;;29.87;17.80;;;;;;;41.67;37.31;100547.69;6182709;23;21412;-80
2023/04/18 02:40:28;;;;;;;26.47;19.17;;;;;;;41.70;37.37;100547.03;6185086;23;20442;-80
2023/04/18 02:42:54;;;;;;;28.00;19.23;;;;;;;41.75;37.09;100546.84;6182867;23;20183;-80
2023/04/18 02:45:20;;;;;;;29.83;19.00;;;;;;;41.46;37.21;100542.34;6181648;23;20164;-79
2023/04/18 02:47:46;;;;;;;29.13;17.73;;;;;;;41.38;38.02;100545.19;6181975;23;20384;-80
2023/04/18 02:50:12;;;;;;;29.53;18.40;;;;;;;41.78;36.96;100548.88;6185062;23;20364;-80
2023/04/18 02:52:38;;;;;;;31.87;17.33;;;;;;;41.81;37.11;100537.31;6183197;23;20391;-80
2023/04/18 02:55:05;;;;;;;21.80;17.30;;;;;;;41.90;36.97;100548.06;6182924;23;20407;-81
2023/04/18 02:57:31;;;;;;;26.77;16.43;;;;;;;41.84;36.96;100541.28;6181890;23;20158;-82
2023/04/18 02:59:56;;;;;;;22.27;15.57;;;;;;;41.81;37.28;100540.03;6182474;23;20487;-82
2023/04/18 03:02:22;;;;;;;28.17;18.60;;;;;;;41.71;36.90;100539.66;6182959;23;20384;-82
2023/04/18 03:04:48;;;;;;;32.93;17.70;;;;;;;41.57;37.11;100537.28;6182364;23;20424;-81
2023/04/18 03:07:14;;;;;;;31.33;15.53;;;;;;;41.80;36.86;100529.47;6184642;23;20423;-80
2023/04/18 03:09:40;;;;;;;28.20;16.40;;;;;;;41.86;36.79;100525.38;6185883;23;20145;-81
2023/04/18 03:12:06;;;;;;;34.80;16.00;;;;;;;41.92;36.86;100524.00;6184830;23;20399;-81
2023/04/18 03:14:32;;;;;;;31.27;15.13;;;;;;;41.88;36.87;100533.22;6183652;23;20196;-82
2023/04/18 03:16:58;;;;;;;18.80;13.17;;;;;;;41.84;37.19;100527.66;6182578;23;20388;-82
2023/04/18 03:19:24;;;;;;;24.00;13.80;;;;;;;41.85;36.63;100531.97;6183049;23;20538;-82
2023/04/18 03:21:50;;;;;;;23.70;14.20;;;;;;;41.71;36.87;100532.28;6183789;23;20903;-83
2023/04/18 03:24:16;;;;;;;19.20;12.13;;;;;;;41.91;36.49;100530.59;6185266;23;20762;-81
2023/04/18 03:26:42;;;;;;;25.53;11.77;;;;;;;41.79;36.75;100525.16;6183736;23;20157;-81
2023/04/18 03:29:07;;;;;;;23.63;13.30;;;;;;;41.84;36.63;100525.72;6185847;23;20486;-81
2023/04/18 03:31:33;;;;;;;21.13;12.67;;;;;;;41.97;36.33;100528.44;6184890;23;20380;-81
2023/04/18 03:33:59;;;;;;;16.90;11.00;;;;;;;42.04;36.22;100528.66;6184875;23;20177;-81
2023/04/18 03:36:27;;;;;;;17.23;11.63;;;;;;;42.08;36.20;100524.91;6186661;23;20840;-80
2023/04/18 03:38:54;;;;;;;17.83;10.67;;;;;;;41.91;36.75;100516.97;6184852;23;20415;-80
2023/04/18 03:41:20;;;;;;;19.77;12.17;;;;;;;41.73;36.97;100523.75;6184719;23;20388;-80
2023/04/18 03:43:46;;;;;;;25.97;12.73;;;;;;;41.96;36.47;100516.75;6184694;23;20443;-80
2023/04/18 03:46:12;;;;;;;19.37;12.20;;;;;;;41.69;37.16;100514.69;6186743;23;20712;-80
2023/04/18 03:48:37;;;;;;;18.23;10.80;;;;;;;41.66;36.80;100526.25;6185229;23;20145;-81
2023/04/18 03:51:05;;;;;;;19.93;12.60;;;;;;;41.70;36.71;100524.47;6184490;23;20419;-81
2023/04/18 03:53:31;;;;;;;18.73;11.60;;;;;;;41.86;36.71;100525.38;6186563;23;20140;-80
2023/04/18 03:55:57;;;;;;;19.63;12.97;;;;;;;41.57;37.10;100526.38;6184703;23;20416;-80
2023/04/18 03:58:23;;;;;;;21.33;13.07;;;;;;;41.60;37.11;100521.03;6185146;23;20451;-80
2023/04/18 04:00:51;;;;;;;19.83;13.43;;;;;;;41.77;36.92;100524.72;6184250;23;20431;-80
2023/04/18 04:03:18;;;;;;;21.27;13.83;;;;;;;41.84;36.91;100528.44;6184584;23;20185;-81
2023/04/18 04:05:44;;;;;;;32.67;16.97;;;;;;;41.85;36.77;100521.84;6184315;23;20439;-81
2023/04/18 04:08:09;;;;;;;25.47;14.70;;;;;;;41.98;36.56;100524.56;6184597;23;20730;-81
2023/04/18 04:10:35;;;;;;;26.83;16.10;;;;;;;41.99;36.32;100523.44;6186259;23;20755;-80
2023/04/18 04:13:01;;;;;;;29.63;15.80;;;;;;;41.95;36.56;100523.34;6186089;23;20130;-80
2023/04/18 04:15:27;;;;;;;16.80;12.20;;;;;;;41.83;36.84;100529.59;6184420;23;20392;-80
2023/04/18 04:17:53;;;;;;;21.10;12.23;;;;;;;41.96;36.55;100526.84;6184268;23;20164;-81
2023/04/18 04:20:23;;;;;;;18.57;12.07;;;;;;;42.00;36.30;100525.03;6184092;23;20388;-80
2023/04/18 04:22:52;;;;;;;23.00;12.90;;;;;;;42.01;36.36;100529.34;6184405;23;20152;-80
2023/04/18 04:25:19;;;;;;;22.73;14.33;;;;;;;41.98;36.32;100533.53;6186312;23;20360;-80
2023/04/18 04:27:45;;;;;;;29.33;15.60;;;;;;;41.98;36.28;100533.53;6184342;23;20420;-80
2023/04/18 04:30:11;;;;;;;30.40;17.40;;;;;;;42.02;36.29;100537.16;6186140;23;20439;-80
2023/04/18 04:32:37;;;;;;;39.40;22.03;;;;;;;42.06;36.25;100537.28;6186335;23;20714;-80
2023/04/18 04:35:04;;;;;;;41.17;25.00;;;;;;;41.93;36.28;100538.41;6184291;23;20395;-82
2023/04/18 04:37:32;;;;;;;38.50;25.90;;;;;;;42.03;36.30;100530.56;6184114;23;20388;-82
2023/04/18 04:39:59;;;;;;;27.53;16.33;;;;;;;42.05;36.14;100552.03;6186299;23;20360;-82
2023/04/18 04:42:27;;;;;;;24.43;14.87;;;;;;;41.96;36.33;100546.72;6183999;23;20388;-80
2023/04/18 04:44:53;;;;;;;32.37;16.63;;;;;;;41.94;36.60;100556.38;6184189;23;20431;-80
2023/04/18 04:47:19;;;;;;;22.80;15.93;;;;;;;41.98;35.99;100562.72;6184024;23;20865;-80
2023/04/18 04:49:45;;;;;;;29.67;18.83;;;;;;;41.80;36.30;100559.41;6184115;23;20720;-80
2023/04/18 04:52:11;;;;;;;33.83;22.50;;;;;;;41.82;36.35;100557.16;6184267;23;20865;-82
2023/04/18 04:54:37;;;;;;;37.10;20.67;;;;;;;41.90;36.81;100563.63;6184057;23;20179;-82
2023/04/18 04:57:03;;;;;;;40.00;23.30;;;;;;;41.83;36.40;100559.56;6183953;23;20176;-80
2023/04/18 04:59:29;;;;;;;33.60;24.90;;;;;;;41.91;36.29;100559.78;6184117;23;20180;-80
2023/04/18 05:01:56;;;;;;;54.37;30.20;;;;;;;41.74;36.59;100560.75;6183734;23;20410;-80
2023/04/18 05:04:23;;;;;;;58.00;29.20;;;;;;;41.83;36.00;100566.94;6183921;23;20438;-80
2023/04/18 05:06:49;;;;;;;34.03;22.27;;;;;;;41.73;36.48;100570.06;6185745;23;20357;-80
2023/04/18 05:09:15;;;;;;;32.23;23.50;;;;;;;41.79;36.67;100574.97;6183991;23;20434;-80
2023/04/18 05:11:41;;;;;;;41.30;22.50;;;;;;;41.85;36.32;100573.63;6183744;23;20384;-80
2023/04/18 05:14:07;;;;;;;32.63;18.30;;;;;;;41.77;36.32;100585.44;6183736;23;20518;-80
2023/04/18 05:16:33;;;;;;;30.10;18.97;;;;;;;41.78;36.34;100591.66;6183893;23;20380;-81
2023/04/18 05:18:59;;;;;;;22.67;17.17;;;;;;;41.82;36.39;100593.38;6183813;23;20805;-80
2023/04/18 05:21:27;;;;;;;34.97;20.73;;;;;;;41.85;36.31;100589.16;6183734;23;20476;-80
2023/04/18 05:23:53;;;;;;;35.67;21.03;;;;;;;41.64;36.87;100594.69;6183388;23;20519;-80
2023/04/18 05:26:19;;;;;;;33.93;21.23;;;;;;;41.85;36.48;100605.50;6183125;23;20745;-80
2023/04/18 05:28:45;;;;;;;27.70;20.90;;;;;;;41.82;36.17;100619.81;6185360;23;20475;-82
2023/04/18 05:31:11;;;;;;;24.90;19.00;;;;;;;41.76;36.25;100613.00;6183321;23;20791;-80
2023/04/18 05:33:37;;;;;;;26.87;17.37;;;;;;;41.79;36.55;100624.00;6183489;23;20404;-79
2023/04/18 05:36:03;;;;;;;26.13;20.57;;;;;;;41.89;36.36;100624.72;6183663;23;20406;-79
2023/04/18 05:38:29;;;;;;;36.23;21.10;;;;;;;41.94;36.12;100621.78;6184013;23;20391;-79
2023/04/18 05:40:58;;;;;;;26.27;19.17;;;;;;;41.89;36.05;100627.44;6183543;23;20443;-79
2023/04/18 05:43:25;;;;;;;27.67;18.63;;;;;;;41.92;35.97;100624.00;6183445;23;20497;-79
2023/04/18 05:45:51;;;;;;;35.03;21.13;;;;;;;41.88;36.08;100617.69;6185584;23;20395;-79
2023/04/18 05:48:17;;;;;;;28.20;18.10;;;;;;;41.74;36.43;100615.22;6183404;23;20790;-82
2023/04/18 05:50:45;;;;;;;36.27;16.90;;;;;;;41.66;36.41;100614.19;6183142;23;20380;-81
2023/04/18 05:53:11;;;;;;;27.27;21.50;;;;;;;41.70;36.55;100617.84;6183529;23;20384;-81
2023/04/18 05:55:39;;;;;;;36.33;18.57;;;;;;;41.61;36.74;100612.47;6183531;23;20408;-81
2023/04/18 05:58:05;;;;;;;33.03;21.40;;;;;;;41.52;36.85;100628.13;6181534;23;20447;-82
2023/04/18 06:00:31;;;;;;;38.53;21.97;;;;;;;41.50;36.83;100629.63;6183311;23;20759;-80
2023/04/18 06:02:57;;;;;;;37.53;22.53;;;;;;;41.56;36.47;100629.06;6183108;23;20553;-80
2023/04/18 06:05:23;;;;;;;37.20;21.10;;;;;;;41.57;36.61;100640.75;6183238;23;20388;-79
2023/04/18 06:07:49;;;;;;;36.97;21.13;;;;;;;41.65;36.42;100637.13;6183459;23;20384;-79
2023/04/18 06:10:15;;;;;;;32.87;23.37;;;;;;;41.77;36.38;100639.91;6183343;23;20392;-79
2023/04/18 06:12:41;;;;;;;37.20;21.70;;;;;;;41.77;36.31;100645.34;6158783;23;20439;-78
2023/04/18 06:15:08;;;;;;;61.80;29.70;;;;;;;41.67;36.43;100648.47;6184360;23;20503;-79
2023/04/18 06:17:34;;;;;;;44.93;22.83;;;;;;;41.77;36.23;100661.69;6185551;23;20822;-80
2023/04/18 06:20:01;;;;;;;34.40;25.50;;;;;;;41.52;37.10;100662.75;6183153;23;20385;-80
2023/04/18 06:22:27;;;;;;;34.93;21.97;;;;;;;41.56;36.66;100664.47;6183487;23;20384;-80
2023/04/18 17:28:10;;;;;;;18.93;8.07;;;;;;;44.28;32.30;100606.88;6182416;23;20417;-79
2023/04/18 17:30:40;;;;;;;17.00;7.13;;;;;;;44.05;32.28;100595.78;6183047;23;20399;-75
2023/04/18 17:33:06;;;;;;;16.90;5.73;;;;;;;44.13;32.72;100587.38;6185504;23;20521;-76
2023/04/18 17:35:32;;;;;;;17.17;6.30;;;;;;;43.83;32.85;100584.34;6183537;23;20385;-76
2023/04/18 17:37:58;;;;;;;19.93;7.03;;;;;;;43.91;33.06;100579.84;6184093;23;20388;-76
2023/04/18 17:40:25;;;;;;;23.37;7.23;;;;;;;44.01;32.91;100594.88;6183133;23;20934;-75
2023/04/18 17:42:50;;;;;;;16.50;5.60;;;;;;;43.78;33.26;100594.72;6183337;23;20773;-77
2023/04/18 17:45:19;;;;;;;17.67;5.77;;;;;;;43.62;33.50;100598.25;6207803;23;20506;-76
2023/04/18 17:47:45;;;;;;;15.33;6.37;;;;;;;43.72;32.98;100602.41;6182969;23;20292;-76
2023/04/18 17:50:11;;;;;;;16.53;5.37;;;;;;;43.53;33.54;100580.47;6183258;23;20857;-80
2023/04/18 17:52:37;;;;;;;18.83;6.20;;;;;;;43.44;33.35;100584.13;6182781;23;20475;-76
2023/04/18 17:55:03;;;;;;;17.20;5.10;;;;;;;43.30;34.12;100585.69;6183156;23;20404;-76
2023/04/18 17:57:29;;;;;;;16.93;6.20;;;;;;;43.43;33.96;100595.41;6181710;23;20460;-77
2023/04/18 17:59:55;;;;;;;13.10;4.53;;;;;;;43.30;34.01;100582.97;6207001;23;20384;-77
2023/04/18 18:02:26;;;;;;;18.80;5.83;;;;;;;43.23;34.81;100583.56;6183032;23;20395;-76
2023/04/18 18:04:53;;;;;;;23.17;7.03;;;;;;;43.19;35.05;100590.88;6183006;23;20448;-77
2023/04/18 18:07:19;;;;;;;16.23;6.30;;;;;;;43.10;35.07;100592.97;6182908;23;20376;-77
2023/04/18 18:09:45;;;;;;;21.90;5.63;;;;;;;43.06;34.68;100598.31;6183604;23;20472;-76
2023/04/18 18:12:11;;;;;;;21.67;7.10;;;;;;;43.16;35.17;100600.56;6183068;23;20435;-76
2023/04/18 18:14:39;;;;;;;18.70;5.93;;;;;;;43.22;34.46;100582.00;6182949;23;20244;-77
2023/04/18 18:17:05;;;;;;;12.63;5.93;;;;;;;43.00;34.99;100577.88;6183250;23;20400;-77
2023/04/18 18:19:31;;;;;;;15.50;5.10;;;;;;;42.93;34.96;100572.19;6183081;23;20380;-78
2023/04/18 18:21:57;;;;;;;23.33;6.63;;;;;;;43.08;34.96;100568.72;6183042;23;20390;-76
2023/04/18 18:24:25;;;;;;;16.30;8.23;;;;;;;43.14;34.21;100580.19;6183027;23;20452;-77
2023/04/18 18:26:51;;;;;;;15.80;7.27;;;;;;;43.19;34.03;100579.94;6184605;23;20464;-78
2023/04/18 18:29:18;;;;;;;18.93;5.63;;;;;;;42.98;34.75;100568.44;6183173;23;20388;-76
2023/04/18 18:31:44;;;;;;;20.90;6.80;;;;;;;43.14;34.33;100569.28;6183141;23;20384;-75
2023/04/18 18:34:12;;;;;;;13.37;5.00;;;;;;;43.02;34.49;100564.66;6183301;23;20427;-77
2023/04/18 18:36:39;;;;;;;13.10;6.53;;;;;;;43.02;34.77;100570.13;6182610;23;20391;-77
2023/04/18 18:39:04;;;;;;;15.50;6.13;;;;;;;42.71;35.03;100575.47;6183005;23;20460;-76
2023/04/18 18:41:30;;;;;;;16.27;6.00;;;;;;;43.00;34.78;100574.38;6180592;23;20408;-77
2023/04/18 18:43:59;;;;;;;20.43;7.03;;;;;;;43.09;34.71;100586.69;6185203;23;20215;-78
2023/04/18 18:46:26;;;;;;;21.40;10.17;;;;;;;43.10;34.34;100588.31;6182358;23;20534;-77
2023/04/18 18:48:52;;;;;;;19.90;6.93;;;;;;;42.99;34.73;100600.84;6182860;23;20403;-77
2023/04/18 18:51:18;;;;;;;23.40;5.50;;;;;;;42.83;34.83;100614.41;6182853;23;20736;-77
2023/04/18 18:53:45;;;;;;;17.43;4.33;;;;;;;42.64;35.01;100615.03;6207926;23;20376;-76
2023/04/18 18:56:11;;;;;;;16.37;5.20;;;;;;;42.73;34.93;100628.56;6182815;23;20392;-76
2023/04/18 18:58:38;;;;;;;16.93;6.40;;;;;;;42.64;35.01;100634.13;6183036;23;20376;-76
2023/04/18 19:01:04;;;;;;;15.37;4.67;;;;;;;42.71;35.02;100641.72;6182982;23;20375;-76
2023/04/18 19:03:30;;;;;;;26.93;5.63;;;;;;;42.72;35.79;100651.50;6182924;23;20416;-77
2023/04/18 19:05:56;;;;;;;8.97;4.27;;;;;;;42.73;35.51;100669.47;6183132;23;20376;-77
2023/04/18 19:08:22;;;;;;;14.57;4.87;;;;;;;42.88;35.37;100665.22;6182565;23;20412;-77
2023/04/18 19:10:49;;;;;;;10.63;4.60;;;;;;;42.89;35.07;100673.06;6183799;23;20379;-77
2023/04/18 19:13:15;;;;;;;11.57;4.80;;;;;;;43.00;34.83;100670.66;6182977;23;20368;-76
2023/04/18 19:15:41;;;;;;;15.70;5.70;;;;;;;43.03;34.76;100685.53;6182948;23;20380;-76
2023/04/18 19:18:07;;;;;;;21.17;6.40;;;;;;;42.78;34.54;100693.75;6184073;23;20372;-76
2023/04/18 19:20:33;;;;;;;15.90;5.40;;;;;;;43.05;34.58;100694.19;6183207;23;20707;-76
2023/04/18 19:22:59;;;;;;;24.10;6.37;;;;;;;43.00;34.33;100687.03;6182937;23;20922;-77
2023/04/18 19:25:25;;;;;;;17.80;5.57;;;;;;;42.92;34.47;100705.13;6179479;23;20454;-77
2023/04/18 19:27:51;;;;;;;14.67;4.70;;;;;;;43.05;34.13;100708.63;6182745;23;20195;-76
2023/04/18 19:30:17;;;;;;;10.67;4.90;;;;;;;42.88;34.97;100711.59;6182278;23;20730;-76
2023/04/18 19:32:43;;;;;;;12.80;5.17;;;;;;;42.75;34.81;100708.09;6182373;23;20153;-76
2023/04/18 19:35:11;;;;;;;14.43;5.27;;;;;;;42.83;34.76;100717.28;6181952;23;20400;-76
2023/04/18 19:37:37;;;;;;;19.23;5.43;;;;;;;42.87;34.91;100720.94;6182662;23;20491;-76
2023/04/18 19:40:05;;;;;;;20.13;5.60;;;;;;;42.63;34.96;100713.56;6207445;23;20378;-76
2023/04/18 19:42:31;;;;;;;13.00;5.23;;;;;;;42.50;35.36;100722.88;6181886;23;20384;-77
2023/04/18 19:44:58;;;;;;;25.30;6.43;;;;;;;42.57;35.17;100728.56;6182387;23;20419;-76
2023/04/18 19:47:24;;;;;;;27.00;9.20;;;;;;;42.34;36.10;100739.91;6182526;23;20419;-76
2023/04/18 19:49:50;;;;;;;12.83;5.37;;;;;;;42.49;35.54;100729.47;6181381;23;20372;-76
2023/04/18 19:52:17;;;;;;;19.70;7.60;;;;;;;42.49;35.46;100743.91;6183869;23;20383;-76
2023/04/18 19:54:43;;;;;;;16.30;4.17;;;;;;;42.75;35.20;100751.75;6184301;23;20602;-76
2023/04/18 19:57:09;;;;;;;15.37;6.60;;;;;;;42.61;35.10;100751.31;6209090;23;20415;-76
2023/04/18 19:59:35;;;;;;;22.37;7.53;;;;;;;42.59;35.68;100750.84;6183204;23;20419;-76
2023/04/18 20:02:01;;;;;;;15.43;5.40;;;;;;;42.57;35.15;100759.38;6184144;23;20380;-76
2023/04/18 20:04:27;;;;;;;14.67;5.27;;;;;;;42.75;35.26;100764.59;6208412;23;20970;-76
2023/04/18 20:06:54;;;;;;;14.50;7.03;;;;;;;42.79;35.19;100771.78;6185543;23;20255;-76
2023/04/18 20:09:20;;;;;;;13.13;4.83;;;;;;;42.91;35.20;100762.78;6184083;23;20380;-76
2023/04/18 20:11:47;;;;;;;15.03;5.20;;;;;;;42.66;35.69;100764.69;6184126;23;20706;-76
2023/04/18 20:14:13;;;;;;;16.80;6.13;;;;;;;42.79;35.06;100771.78;6184229;23;20373;-77
2023/04/18 20:16:41;;;;;;;22.40;5.67;;;;;;;42.55;35.59;100769.03;6184005;23;20435;-77
2023/04/18 20:19:07;;;;;;;20.50;5.83;;;;;;;42.60;35.39;100779.72;6183720;23;20439;-76
2023/04/18 20:21:33;;;;;;;20.83;4.97;;;;;;;42.68;35.57;100783.47;6183550;23;20377;-76
2023/04/18 20:23:59;;;;;;;14.23;5.37;;;;;;;42.53;36.38;100784.91;6183706;23;20415;-76
2023/04/18 20:26:25;;;;;;;22.60;4.73;;;;;;;42.70;35.86;100787.44;6183560;23;20463;-76
2023/04/18 20:28:51;;;;;;;14.00;5.63;;;;;;;42.84;35.77;100782.44;6183683;23;20384;-76
2023/04/18 20:31:17;;;;;;;17.63;6.17;;;;;;;42.73;35.69;100791.44;6184398;23;20380;-76
2023/04/18 20:33:43;;;;;;;16.67;5.80;;;;;;;42.62;35.68;100789.16;6183312;23;20376;-76
2023/04/18 20:36:09;;;;;;;13.20;4.97;;;;;;;42.72;35.34;100809.72;6182972;23;20392;-76
2023/04/18 20:38:35;;;;;;;11.07;4.63;;;;;;;42.65;35.32;100802.09;6183921;23;20160;-76
2023/04/18 20:41:02;;;;;;;15.43;6.43;;;;;;;42.77;34.90;100814.94;6185943;23;20136;-76
2023/04/18 20:43:28;;;;;;;18.73;5.90;;;;;;;42.72;34.85;100806.97;6209082;23;20387;-76
2023/04/18 20:45:56;;;;;;;13.90;4.97;;;;;;;42.58;34.80;100825.63;6185076;23;20426;-76
2023/04/18 20:48:22;;;;;;;17.30;4.90;;;;;;;42.74;34.51;100818.38;6183503;23;20392;-76
2023/04/18 20:50:51;;;;;;;16.50;4.77;;;;;;;42.72;35.07;100823.34;6184272;23;20377;-76
2023/04/18 20:53:23;;;;;;;12.10;4.50;;;;;;;42.73;35.06;100840.53;6184151;23;20388;-76
2023/04/18 20:55:49;;;;;;;21.20;5.30;;;;;;;42.73;34.81;100841.34;6208873;23;20758;-76
2023/04/18 20:58:15;;;;;;;17.50;4.77;;;;;;;42.84;34.80;100849.84;6183947;23;20405;-76
2023/04/18 21:00:43;;;;;;;18.87;6.50;;;;;;;42.76;34.86;100848.81;6183940;23;20236;-76
2023/04/18 21:03:11;;;;;;;16.40;5.40;;;;;;;42.78;35.35;100846.53;6207495;23;20475;-77
2023/04/18 21:05:37;;;;;;;20.53;6.23;;;;;;;42.77;35.24;100853.13;6208554;23;20453;-76
2023/04/18 21:08:03;;;;;;;13.60;5.30;;;;;;;42.80;35.06;100840.78;6183797;23;20412;-76
2023/04/18 21:10:29;;;;;;;12.37;5.37;;;;;;;42.86;34.59;100840.19;6183657;23;20234;-76
2023/04/18 21:12:55;;;;;;;12.53;4.53;;;;;;;42.84;35.22;100853.38;6208336;23;20412;-76
2023/04/18 21:15:21;;;;;;;14.67;6.10;;;;;;;42.87;35.01;100846.44;6183454;23;20184;-76
2023/04/18 21:17:49;;;;;;;19.53;5.93;;;;;;;42.76;35.24;100853.50;6183238;23;20389;-76
2023/04/18 21:20:16;;;;;;;20.03;5.53;;;;;;;42.83;35.17;100850.97;6183526;23;20880;-76
2023/04/18 21:22:42;;;;;;;17.53;5.67;;;;;;;42.73;35.35;100863.16;6183747;23;20394;-76
2023/04/18 21:25:08;;;;;;;18.73;7.53;;;;;;;42.68;34.88;100862.59;6183494;23;20510;-76
2023/04/18 21:27:34;;;;;;;17.30;5.30;;;;;;;42.52;35.60;100871.38;6207789;23;20207;-76
2023/04/18 21:30:00;;;;;;;18.30;5.20;;;;;;;42.67;35.12;100874.63;6182658;23;20383;-76
2023/04/18 21:32:26;;;;;;;25.97;8.70;;;;;;;42.75;34.93;100876.47;6208432;23;20837;-77
2023/04/18 21:34:54;;;;;;;13.73;6.50;;;;;;;42.65;35.05;100878.47;6182518;23;20863;-76
2023/04/18 21:37:20;;;;;;;16.13;7.00;;;;;;;42.67;35.26;100869.19;6183688;23;20384;-76
2023/04/18 21:39:46;;;;;;;14.40;5.37;;;;;;;42.38;35.70;100876.34;6183419;23;20439;-77
2023/04/18 21:42:12;;;;;;;31.97;8.30;;;;;;;42.63;35.54;100879.97;6182876;23;20504;-76
2023/04/18 21:44:38;;;;;;;10.50;4.17;;;;;;;42.69;35.24;100886.78;6182598;23;20184;-76
2023/04/18 21:47:04;;;;;;;14.50;5.93;;;;;;;42.50;35.21;100892.75;6182673;23;20172;-76
2023/04/18 21:49:29;;;;;;;16.43;4.73;;;;;;;42.62;34.88;100889.28;6183536;23;20712;-75
2023/04/18 21:51:55;;;;;;;14.07;6.07;;;;;;;42.43;35.41;100897.16;6208435;23;20857;-76
2023/04/18 21:54:21;;;;;;;15.90;6.27;;;;;;;42.65;35.39;100907.69;6182642;23;20206;-76
2023/04/18 21:56:47;;;;;;;12.20;6.23;;;;;;;42.64;35.78;100911.56;6183100;23;20180;-77
2023/04/18 21:59:13;;;;;;;16.50;6.80;;;;;;;42.74;35.50;100924.78;6183188;23;20384;-76
2023/04/18 22:01:39;;;;;;;16.73;9.50;;;;;;;42.78;34.75;100930.31;6183441;23;20376;-76
2023/04/18 22:04:05;;;;;;;21.37;7.10;;;;;;;42.71;34.96;100932.81;6183925;23;20262;-75
2023/04/18 22:06:32;;;;;;;13.57;4.63;;;;;;;42.84;35.10;100921.59;6185562;23;20355;-75
2023/04/18 22:08:59;;;;;;;20.10;6.07;;;;;;;42.77;35.58;100924.06;6185288;23;20367;-76
2023/04/18 22:11:26;;;;;;;13.73;5.83;;;;;;;42.87;34.92;100907.28;6183730;23;20721;-77